KQA251 FSIA-HKJK
Flight info
| Callsign | KQA251 |
|---|---|
| Flight time | 2h 49m |
| Altitude | 34000 |
| Route | UNBED T153 TIDAD DCT DANEL/N0453F350 UM311 NETAR/N0450F360 UM311 EVOGO EVOGO2C |
| Aircraft | B738/M-SDE2E3FGHIRWXY/LB1 |
Departure
| Time | 2026-04-26 06:38 |
|---|---|
| Airport | Seychelles International Airport (FSIA) |
Arrival
| Time | 2026-04-26 09:28 |
|---|---|
| Airport | Jomo Kenyatta International Airport (HKJK) |
| Time | Latitude | Longitude | Altitude | Speed | Heading |
|---|---|---|---|---|---|
| 2026-04-26 05:58 | -4.67052 | 55.51186 | 16 ft | 0 kts | 213° |
| 2026-04-26 06:18 | -4.67042 | 55.51193 | 16 ft | 2 kts | 214° |
| 2026-04-26 06:18 | -4.67031 | 55.51204 | 15 ft | 2 kts | 240° |
| 2026-04-26 06:18 | -4.67025 | 55.51218 | 14 ft | 2 kts | 259° |
| 2026-04-26 06:19 | -4.67025 | 55.51234 | 14 ft | 2 kts | 279° |
| 2026-04-26 06:19 | -4.67029 | 55.51248 | 14 ft | 1 kts | 298° |
| 2026-04-26 06:19 | -4.67033 | 55.51254 | 14 ft | 1 kts | 306° |
| 2026-04-26 06:19 | -4.67034 | 55.51256 | 14 ft | 0 kts | 304° |
| 2026-04-26 06:22 | -4.67032 | 55.51252 | 14 ft | 2 kts | 304° |
| 2026-04-26 06:22 | -4.67020 | 55.51236 | 14 ft | 2 kts | 306° |
| 2026-04-26 06:22 | -4.67012 | 55.51224 | 14 ft | 1 kts | 306° |
| 2026-04-26 06:22 | -4.67011 | 55.51223 | 14 ft | 0 kts | 306° |
| 2026-04-26 06:23 | -4.66993 | 55.51201 | 15 ft | 8 kts | 314° |
| 2026-04-26 06:23 | -4.66937 | 55.51185 | 14 ft | 8 kts | 26° |
| 2026-04-26 06:23 | -4.66881 | 55.51188 | 14 ft | 8 kts | 327° |
| 2026-04-26 06:23 | -4.66846 | 55.51143 | 14 ft | 7 kts | 305° |
| 2026-04-26 06:24 | -4.66815 | 55.51100 | 14 ft | 7 kts | 306° |
| 2026-04-26 06:24 | -4.66785 | 55.51060 | 14 ft | 6 kts | 314° |
| 2026-04-26 06:24 | -4.66759 | 55.51045 | 14 ft | 0 kts | 345° |
| 2026-04-26 06:36 | -4.66751 | 55.51044 | 14 ft | 4 kts | 0° |
| 2026-04-26 06:36 | -4.66722 | 55.51060 | 14 ft | 9 kts | 32° |
| 2026-04-26 06:37 | -4.66688 | 55.51128 | 14 ft | 12 kts | 122° |
| 2026-04-26 06:37 | -4.66705 | 55.51150 | 14 ft | 0 kts | 127° |
| 2026-04-26 06:37 | -4.66724 | 55.51176 | 14 ft | 22 kts | 125° |
| 2026-04-26 06:38 | -4.66955 | 55.51502 | 14 ft | 91 kts | 124° |
| 2026-04-26 06:38 | -4.67444 | 55.52205 | 14 ft | 149 kts | 125° |
| 2026-04-26 06:38 | -4.68122 | 55.53169 | 128 ft | 185 kts | 125° |
| 2026-04-26 06:38 | -4.68864 | 55.54210 | 803 ft | 183 kts | 126° |
| 2026-04-26 06:39 | -4.69585 | 55.55270 | 1421 ft | 187 kts | 126° |
| 2026-04-26 06:39 | -4.70349 | 55.56352 | 1871 ft | 195 kts | 127° |
| 2026-04-26 06:39 | -4.71143 | 55.57487 | 2264 ft | 205 kts | 126° |
| 2026-04-26 06:39 | -4.71979 | 55.58721 | 2561 ft | 221 kts | 126° |
| 2026-04-26 06:40 | -4.72895 | 55.60040 | 2900 ft | 237 kts | 126° |
| 2026-04-26 06:40 | -4.73713 | 55.61535 | 3175 ft | 256 kts | 105° |
| 2026-04-26 06:40 | -4.73782 | 55.63328 | 3678 ft | 266 kts | 78° |
| 2026-04-26 06:40 | -4.73104 | 55.65080 | 4257 ft | 271 kts | 58° |
| 2026-04-26 06:41 | -4.71879 | 55.66544 | 4741 ft | 280 kts | 39° |
| 2026-04-26 06:41 | -4.70191 | 55.67518 | 5348 ft | 281 kts | 14° |
| 2026-04-26 06:41 | -4.68277 | 55.67681 | 5954 ft | 279 kts | 348° |
| 2026-04-26 06:41 | -4.66465 | 55.67017 | 6607 ft | 276 kts | 326° |
| 2026-04-26 06:42 | -4.65011 | 55.65764 | 7210 ft | 277 kts | 309° |
| 2026-04-26 06:42 | -4.63987 | 55.64141 | 7676 ft | 283 kts | 293° |
| 2026-04-26 06:42 | -4.63281 | 55.62294 | 8330 ft | 283 kts | 289° |
| 2026-04-26 06:42 | -4.62646 | 55.60416 | 8962 ft | 284 kts | 288° |
| 2026-04-26 06:43 | -4.62011 | 55.58531 | 9445 ft | 291 kts | 289° |
| 2026-04-26 06:43 | -4.61329 | 55.56608 | 10051 ft | 294 kts | 290° |
| 2026-04-26 06:43 | -4.60606 | 55.54653 | 10380 ft | 307 kts | 291° |
| 2026-04-26 06:43 | -4.59837 | 55.52617 | 10686 ft | 320 kts | 291° |
| 2026-04-26 06:44 | -4.59027 | 55.50476 | 10991 ft | 333 kts | 291° |
| 2026-04-26 06:44 | -4.58192 | 55.48268 | 11321 ft | 346 kts | 291° |
| 2026-04-26 06:44 | -4.57296 | 55.45998 | 11788 ft | 352 kts | 294° |
| 2026-04-26 06:44 | -4.56258 | 55.43777 | 12351 ft | 355 kts | 297° |
| 2026-04-26 06:45 | -4.55086 | 55.41559 | 12971 ft | 357 kts | 299° |
| 2026-04-26 06:45 | -4.53869 | 55.39353 | 13561 ft | 361 kts | 300° |
| 2026-04-26 06:45 | -4.52661 | 55.37164 | 14097 ft | 366 kts | 300° |
| 2026-04-26 06:45 | -4.51427 | 55.34896 | 14629 ft | 371 kts | 299° |
| 2026-04-26 06:46 | -4.50192 | 55.32598 | 15180 ft | 375 kts | 299° |
| 2026-04-26 06:46 | -4.48956 | 55.30274 | 15674 ft | 381 kts | 299° |
| 2026-04-26 06:46 | -4.47724 | 55.27949 | 16223 ft | 384 kts | 299° |
| 2026-04-26 06:46 | -4.46465 | 55.25569 | 16731 ft | 388 kts | 299° |
| 2026-04-26 06:47 | -4.45198 | 55.23174 | 17243 ft | 392 kts | 299° |
| 2026-04-26 06:47 | -4.43917 | 55.20752 | 17746 ft | 395 kts | 299° |
| 2026-04-26 06:47 | -4.42632 | 55.18320 | 18261 ft | 396 kts | 298° |
| 2026-04-26 06:47 | -4.41337 | 55.15853 | 18631 ft | 401 kts | 298° |
| 2026-04-26 06:48 | -4.40076 | 55.13361 | 19155 ft | 402 kts | 295° |
| 2026-04-26 06:48 | -4.38996 | 55.10791 | 19699 ft | 403 kts | 290° |
| 2026-04-26 06:48 | -4.38160 | 55.08100 | 20163 ft | 406 kts | 285° |
| 2026-04-26 06:48 | -4.37499 | 55.05368 | 20687 ft | 407 kts | 282° |
| 2026-04-26 06:49 | -4.36910 | 55.02567 | 21125 ft | 410 kts | 281° |
| 2026-04-26 06:49 | -4.36365 | 54.99804 | 21657 ft | 410 kts | 280° |
| 2026-04-26 06:49 | -4.35819 | 54.96986 | 22119 ft | 411 kts | 281° |
| 2026-04-26 06:49 | -4.35269 | 54.94166 | 22559 ft | 414 kts | 280° |
| 2026-04-26 06:50 | -4.34715 | 54.91356 | 22985 ft | 416 kts | 281° |
| 2026-04-26 06:50 | -4.34145 | 54.88509 | 23380 ft | 419 kts | 281° |
| 2026-04-26 06:50 | -4.33566 | 54.85639 | 23811 ft | 421 kts | 281° |
| 2026-04-26 06:50 | -4.32978 | 54.82749 | 24240 ft | 423 kts | 281° |
| 2026-04-26 06:51 | -4.32386 | 54.79854 | 24616 ft | 426 kts | 281° |
| 2026-04-26 06:51 | -4.31195 | 54.74052 | 25420 ft | 429 kts | 281° |
| 2026-04-26 06:51 | -4.30593 | 54.71123 | 25811 ft | 431 kts | 281° |
| 2026-04-26 06:52 | -4.29982 | 54.68151 | 26182 ft | 433 kts | 281° |
| 2026-04-26 06:52 | -4.29378 | 54.65212 | 26531 ft | 436 kts | 281° |
| 2026-04-26 06:52 | -4.28763 | 54.62223 | 26912 ft | 437 kts | 281° |
| 2026-04-26 06:52 | -4.28153 | 54.59260 | 27248 ft | 440 kts | 281° |
| 2026-04-26 06:53 | -4.27538 | 54.56268 | 27631 ft | 441 kts | 281° |
| 2026-04-26 06:53 | -4.26911 | 54.53225 | 27932 ft | 444 kts | 281° |
| 2026-04-26 06:53 | -4.26294 | 54.50229 | 28308 ft | 444 kts | 281° |
| 2026-04-26 06:53 | -4.25666 | 54.47176 | 28606 ft | 447 kts | 281° |
| 2026-04-26 06:54 | -4.25044 | 54.44154 | 28962 ft | 448 kts | 281° |
| 2026-04-26 06:54 | -4.24410 | 54.41073 | 29249 ft | 451 kts | 282° |
| 2026-04-26 06:54 | -4.23781 | 54.38020 | 29762 ft | 448 kts | 282° |
| 2026-04-26 06:54 | -4.23153 | 54.34970 | 30308 ft | 444 kts | 282° |
| 2026-04-26 06:55 | -4.22539 | 54.31988 | 30779 ft | 442 kts | 282° |
| 2026-04-26 06:55 | -4.21918 | 54.28979 | 31215 ft | 440 kts | 282° |
| 2026-04-26 06:55 | -4.21299 | 54.25980 | 31633 ft | 439 kts | 283° |
| 2026-04-26 06:55 | -4.20682 | 54.22989 | 32035 ft | 437 kts | 283° |
| 2026-04-26 06:56 | -4.20073 | 54.20032 | 32396 ft | 436 kts | 283° |
| 2026-04-26 06:56 | -4.19457 | 54.17049 | 32769 ft | 436 kts | 283° |
| 2026-04-26 06:56 | -4.18851 | 54.14107 | 33163 ft | 434 kts | 283° |
| 2026-04-26 06:56 | -4.18236 | 54.11131 | 33565 ft | 433 kts | 283° |
| 2026-04-26 06:57 | -4.17631 | 54.08199 | 33891 ft | 433 kts | 283° |
| 2026-04-26 06:57 | -4.17013 | 54.05214 | 33904 ft | 437 kts | 283° |
| 2026-04-26 06:57 | -4.15792 | 53.99307 | 33905 ft | 433 kts | 283° |
| 2026-04-26 06:58 | -4.14572 | 53.93407 | 33906 ft | 433 kts | 283° |
| 2026-04-26 06:58 | -4.13353 | 53.87505 | 33904 ft | 432 kts | 283° |
| 2026-04-26 06:59 | -4.12132 | 53.81598 | 33906 ft | 433 kts | 283° |
| 2026-04-26 06:59 | -4.10913 | 53.75701 | 33905 ft | 434 kts | 283° |
| 2026-04-26 07:00 | -4.09693 | 53.69801 | 33906 ft | 434 kts | 283° |
| 2026-04-26 07:00 | -4.08466 | 53.63874 | 33905 ft | 434 kts | 283° |
| 2026-04-26 07:01 | -4.07239 | 53.57946 | 33904 ft | 433 kts | 283° |
| 2026-04-26 07:01 | -4.06020 | 53.52063 | 33904 ft | 434 kts | 283° |
| 2026-04-26 07:02 | -4.04802 | 53.46171 | 33905 ft | 434 kts | 283° |
| 2026-04-26 07:02 | -4.03581 | 53.40276 | 33903 ft | 433 kts | 283° |
| 2026-04-26 07:03 | -4.02351 | 53.34351 | 33904 ft | 433 kts | 283° |
| 2026-04-26 07:03 | -4.01127 | 53.28455 | 33904 ft | 433 kts | 283° |
| 2026-04-26 07:04 | -3.99904 | 53.22561 | 33905 ft | 434 kts | 283° |
| 2026-04-26 07:04 | -3.98676 | 53.16651 | 33905 ft | 434 kts | 283° |
| 2026-04-26 07:05 | -3.97447 | 53.10777 | 33905 ft | 435 kts | 284° |
| 2026-04-26 07:05 | -3.96045 | 53.04870 | 33905 ft | 435 kts | 285° |
| 2026-04-26 07:06 | -3.94567 | 52.99026 | 33905 ft | 434 kts | 285° |
| 2026-04-26 07:06 | -3.93091 | 52.93188 | 33905 ft | 434 kts | 285° |
| 2026-04-26 07:07 | -3.91622 | 52.87324 | 33904 ft | 434 kts | 285° |
| 2026-04-26 07:07 | -3.90168 | 52.81474 | 33905 ft | 433 kts | 285° |
| 2026-04-26 07:08 | -3.88716 | 52.75614 | 33906 ft | 435 kts | 285° |
| 2026-04-26 07:08 | -3.87270 | 52.69774 | 33906 ft | 435 kts | 285° |
| 2026-04-26 07:09 | -3.85815 | 52.63894 | 33906 ft | 435 kts | 285° |
| 2026-04-26 07:09 | -3.84364 | 52.58037 | 33909 ft | 435 kts | 285° |
| 2026-04-26 07:11 | -3.80722 | 52.43335 | 33912 ft | 435 kts | 285° |
| 2026-04-26 07:11 | -3.79439 | 52.37455 | 33911 ft | 436 kts | 281° |
| 2026-04-26 07:12 | -3.78513 | 52.31444 | 33916 ft | 436 kts | 279° |
| 2026-04-26 07:12 | -3.77659 | 52.25451 | 33913 ft | 436 kts | 279° |
| 2026-04-26 07:13 | -3.76782 | 52.19479 | 33914 ft | 436 kts | 279° |
| 2026-04-26 07:13 | -3.75866 | 52.13438 | 33917 ft | 437 kts | 280° |
| 2026-04-26 07:14 | -3.74945 | 52.07453 | 33908 ft | 437 kts | 280° |
| 2026-04-26 07:14 | -3.74012 | 52.01437 | 33905 ft | 437 kts | 280° |
| 2026-04-26 07:15 | -3.73084 | 51.95461 | 33905 ft | 437 kts | 280° |
| 2026-04-26 07:15 | -3.72152 | 51.89468 | 33905 ft | 437 kts | 280° |
| 2026-04-26 07:16 | -3.71222 | 51.83486 | 33907 ft | 437 kts | 280° |
| 2026-04-26 07:16 | -3.70286 | 51.77472 | 33907 ft | 436 kts | 280° |
| 2026-04-26 07:17 | -3.69352 | 51.71479 | 33907 ft | 437 kts | 280° |
| 2026-04-26 07:17 | -3.68421 | 51.65507 | 33906 ft | 437 kts | 280° |
| 2026-04-26 07:18 | -3.67484 | 51.59498 | 33906 ft | 437 kts | 280° |
| 2026-04-26 07:18 | -3.66551 | 51.53509 | 33905 ft | 437 kts | 280° |
| 2026-04-26 07:19 | -3.65614 | 51.47506 | 33905 ft | 436 kts | 280° |
| 2026-04-26 07:19 | -3.64678 | 51.41510 | 33905 ft | 436 kts | 280° |
| 2026-04-26 07:20 | -3.63748 | 51.35558 | 33905 ft | 437 kts | 280° |
| 2026-04-26 07:20 | -3.62812 | 51.29562 | 33905 ft | 437 kts | 280° |
| 2026-04-26 07:21 | -3.61874 | 51.23556 | 33905 ft | 436 kts | 280° |
| 2026-04-26 07:21 | -3.60940 | 51.17584 | 33905 ft | 437 kts | 280° |
| 2026-04-26 07:22 | -3.60001 | 51.11585 | 33905 ft | 437 kts | 281° |
| 2026-04-26 07:22 | -3.59063 | 51.05590 | 33905 ft | 437 kts | 280° |
| 2026-04-26 07:23 | -3.58123 | 50.99581 | 33905 ft | 436 kts | 280° |
| 2026-04-26 07:23 | -3.57183 | 50.93574 | 33905 ft | 436 kts | 280° |
| 2026-04-26 07:24 | -3.56247 | 50.87604 | 33905 ft | 437 kts | 280° |
| 2026-04-26 07:24 | -3.55310 | 50.81626 | 33904 ft | 436 kts | 280° |
| 2026-04-26 07:25 | -3.54367 | 50.75612 | 33905 ft | 437 kts | 281° |
| 2026-04-26 07:25 | -3.53428 | 50.69628 | 33905 ft | 437 kts | 281° |
| 2026-04-26 07:26 | -3.52487 | 50.63629 | 33905 ft | 436 kts | 281° |
| 2026-04-26 07:26 | -3.51546 | 50.57642 | 33905 ft | 436 kts | 280° |
| 2026-04-26 07:27 | -3.50611 | 50.51689 | 33905 ft | 436 kts | 280° |
| 2026-04-26 07:27 | -3.49666 | 50.45675 | 33905 ft | 436 kts | 281° |
| 2026-04-26 07:28 | -3.48724 | 50.39687 | 33905 ft | 437 kts | 281° |
| 2026-04-26 07:28 | -3.47781 | 50.33693 | 33907 ft | 437 kts | 281° |
| 2026-04-26 07:29 | -3.46839 | 50.27713 | 33909 ft | 437 kts | 281° |
| 2026-04-26 07:29 | -3.45896 | 50.21724 | 33912 ft | 436 kts | 281° |
| 2026-04-26 07:30 | -3.44952 | 50.15730 | 33912 ft | 436 kts | 281° |
| 2026-04-26 07:30 | -3.44011 | 50.09753 | 33916 ft | 435 kts | 281° |
| 2026-04-26 07:31 | -3.43075 | 50.03813 | 33922 ft | 436 kts | 281° |
| 2026-04-26 07:31 | -3.42132 | 49.97833 | 33926 ft | 436 kts | 281° |
| 2026-04-26 07:32 | -3.41228 | 49.92100 | 33925 ft | 437 kts | 281° |
| 2026-04-26 07:32 | -3.40284 | 49.86111 | 33925 ft | 437 kts | 281° |
| 2026-04-26 07:33 | -3.39341 | 49.80131 | 33926 ft | 437 kts | 281° |
| 2026-04-26 07:33 | -3.38397 | 49.74146 | 33926 ft | 436 kts | 281° |
| 2026-04-26 07:34 | -3.37456 | 49.68181 | 33926 ft | 436 kts | 281° |
| 2026-04-26 07:34 | -3.36507 | 49.62177 | 33925 ft | 436 kts | 281° |
| 2026-04-26 07:35 | -3.35560 | 49.56177 | 33925 ft | 437 kts | 281° |
| 2026-04-26 07:35 | -3.34616 | 49.50206 | 33926 ft | 437 kts | 281° |
| 2026-04-26 07:36 | -3.33664 | 49.44186 | 33926 ft | 437 kts | 281° |
| 2026-04-26 07:36 | -3.32714 | 49.38184 | 33926 ft | 438 kts | 281° |
| 2026-04-26 07:37 | -3.31771 | 49.32216 | 33925 ft | 436 kts | 281° |
| 2026-04-26 07:37 | -3.30825 | 49.26238 | 33925 ft | 436 kts | 281° |
| 2026-04-26 07:38 | -3.29876 | 49.20254 | 33923 ft | 436 kts | 281° |
| 2026-04-26 07:38 | -3.28927 | 49.14261 | 33922 ft | 437 kts | 281° |
| 2026-04-26 07:39 | -3.27979 | 49.08281 | 33920 ft | 438 kts | 281° |
| 2026-04-26 07:39 | -3.27024 | 49.02256 | 33915 ft | 438 kts | 281° |
| 2026-04-26 07:40 | -3.26073 | 48.96263 | 33909 ft | 437 kts | 281° |
| 2026-04-26 07:40 | -3.25126 | 48.90287 | 33906 ft | 437 kts | 281° |
| 2026-04-26 07:41 | -3.24177 | 48.84308 | 33908 ft | 437 kts | 281° |
| 2026-04-26 07:41 | -3.23226 | 48.78317 | 33910 ft | 438 kts | 281° |
| 2026-04-26 07:42 | -3.22272 | 48.72313 | 33906 ft | 437 kts | 281° |
| 2026-04-26 07:42 | -3.21320 | 48.66321 | 33906 ft | 438 kts | 281° |
| 2026-04-26 07:43 | -3.20363 | 48.60302 | 33905 ft | 438 kts | 281° |
| 2026-04-26 07:43 | -3.19406 | 48.54282 | 33904 ft | 438 kts | 281° |
| 2026-04-26 07:44 | -3.18448 | 48.48262 | 33904 ft | 438 kts | 281° |
| 2026-04-26 07:44 | -3.17490 | 48.42247 | 33905 ft | 438 kts | 281° |
| 2026-04-26 07:45 | -3.16537 | 48.36260 | 33905 ft | 438 kts | 281° |
| 2026-04-26 07:45 | -3.15578 | 48.30236 | 33905 ft | 439 kts | 282° |
| 2026-04-26 07:46 | -3.14624 | 48.24244 | 33904 ft | 439 kts | 282° |
| 2026-04-26 07:46 | -3.13661 | 48.18208 | 33904 ft | 440 kts | 282° |
| 2026-04-26 07:47 | -3.12696 | 48.12160 | 33905 ft | 439 kts | 282° |
| 2026-04-26 07:47 | -3.11742 | 48.06177 | 33904 ft | 439 kts | 282° |
| 2026-04-26 07:48 | -3.10780 | 48.00147 | 33905 ft | 440 kts | 282° |
| 2026-04-26 07:48 | -3.09815 | 47.94103 | 33905 ft | 439 kts | 282° |
| 2026-04-26 07:49 | -3.08856 | 47.88102 | 33905 ft | 439 kts | 282° |
| 2026-04-26 07:49 | -3.07896 | 47.82088 | 33911 ft | 439 kts | 282° |
| 2026-04-26 07:50 | -3.06446 | 47.73018 | 33925 ft | 440 kts | 282° |
| 2026-04-26 07:50 | -3.05484 | 47.67007 | 33926 ft | 441 kts | 282° |
| 2026-04-26 07:51 | -3.04515 | 47.60955 | 33926 ft | 440 kts | 282° |
| 2026-04-26 07:51 | -3.03548 | 47.54914 | 33926 ft | 441 kts | 282° |
| 2026-04-26 07:52 | -3.02580 | 47.48861 | 33925 ft | 441 kts | 282° |
| 2026-04-26 07:52 | -3.01611 | 47.42806 | 33925 ft | 442 kts | 282° |
| 2026-04-26 07:53 | -3.00649 | 47.36784 | 33925 ft | 441 kts | 282° |
| 2026-04-26 07:53 | -2.99677 | 47.30707 | 33926 ft | 443 kts | 282° |
| 2026-04-26 07:54 | -2.98708 | 47.24646 | 33925 ft | 443 kts | 282° |
| 2026-04-26 07:54 | -2.97737 | 47.18574 | 33926 ft | 443 kts | 282° |
| 2026-04-26 07:55 | -2.96765 | 47.12492 | 33926 ft | 443 kts | 282° |
| 2026-04-26 07:55 | -2.95796 | 47.06430 | 33926 ft | 443 kts | 282° |
| 2026-04-26 07:56 | -2.94822 | 47.00347 | 33926 ft | 443 kts | 282° |
| 2026-04-26 07:56 | -2.93850 | 46.94277 | 33925 ft | 444 kts | 282° |
| 2026-04-26 07:57 | -2.92874 | 46.88180 | 33926 ft | 445 kts | 282° |
| 2026-04-26 07:57 | -2.91898 | 46.82090 | 33926 ft | 444 kts | 282° |
| 2026-04-26 07:58 | -2.90926 | 46.76027 | 33926 ft | 443 kts | 282° |
| 2026-04-26 07:58 | -2.89951 | 46.69947 | 33926 ft | 443 kts | 282° |
| 2026-04-26 07:59 | -2.88974 | 46.63851 | 33926 ft | 444 kts | 282° |
| 2026-04-26 07:59 | -2.88001 | 46.57795 | 33926 ft | 444 kts | 282° |
| 2026-04-26 08:00 | -2.87021 | 46.51696 | 33925 ft | 445 kts | 282° |
| 2026-04-26 08:00 | -2.86044 | 46.45604 | 33926 ft | 444 kts | 282° |
| 2026-04-26 08:01 | -2.85072 | 46.39555 | 33926 ft | 443 kts | 282° |
| 2026-04-26 08:01 | -2.84092 | 46.33464 | 33927 ft | 443 kts | 282° |
| 2026-04-26 08:02 | -2.83116 | 46.27395 | 33926 ft | 444 kts | 282° |
| 2026-04-26 08:02 | -2.82135 | 46.21291 | 33925 ft | 444 kts | 282° |
| 2026-04-26 08:03 | -2.81156 | 46.15207 | 33926 ft | 445 kts | 282° |
| 2026-04-26 08:03 | -2.80176 | 46.09120 | 33923 ft | 444 kts | 282° |
| 2026-04-26 08:04 | -2.79199 | 46.03043 | 33925 ft | 443 kts | 282° |
| 2026-04-26 08:04 | -2.78217 | 45.96942 | 33924 ft | 443 kts | 282° |
| 2026-04-26 08:05 | -2.77236 | 45.90855 | 33919 ft | 443 kts | 282° |
| 2026-04-26 08:05 | -2.76260 | 45.84800 | 33921 ft | 445 kts | 282° |
| 2026-04-26 08:06 | -2.75273 | 45.78676 | 33920 ft | 444 kts | 282° |
| 2026-04-26 08:06 | -2.74294 | 45.72596 | 33921 ft | 444 kts | 282° |
| 2026-04-26 08:07 | -2.73313 | 45.66513 | 33919 ft | 443 kts | 282° |
| 2026-04-26 08:07 | -2.72333 | 45.60440 | 33909 ft | 444 kts | 282° |
| 2026-04-26 08:08 | -2.71351 | 45.54357 | 33904 ft | 444 kts | 282° |
| 2026-04-26 08:08 | -2.70372 | 45.48291 | 33905 ft | 445 kts | 282° |
| 2026-04-26 08:09 | -2.69385 | 45.42188 | 33905 ft | 445 kts | 282° |
| 2026-04-26 08:09 | -2.68404 | 45.36119 | 33904 ft | 444 kts | 282° |
| 2026-04-26 08:10 | -2.67421 | 45.30040 | 33905 ft | 444 kts | 282° |
| 2026-04-26 08:10 | -2.66439 | 45.23964 | 33905 ft | 443 kts | 282° |
| 2026-04-26 08:11 | -2.65450 | 45.17852 | 33905 ft | 444 kts | 282° |
| 2026-04-26 08:11 | -2.64471 | 45.11793 | 33905 ft | 444 kts | 282° |
| 2026-04-26 08:12 | -2.63488 | 45.05718 | 33905 ft | 444 kts | 282° |
| 2026-04-26 08:12 | -2.62498 | 44.99604 | 33904 ft | 445 kts | 282° |
| 2026-04-26 08:13 | -2.61511 | 44.93511 | 33905 ft | 445 kts | 282° |
| 2026-04-26 08:13 | -2.60527 | 44.87436 | 33911 ft | 444 kts | 282° |
| 2026-04-26 08:14 | -2.59536 | 44.81319 | 33914 ft | 444 kts | 282° |
| 2026-04-26 08:14 | -2.58553 | 44.75248 | 33914 ft | 442 kts | 282° |
| 2026-04-26 08:15 | -2.57574 | 44.69216 | 33915 ft | 443 kts | 282° |
| 2026-04-26 08:15 | -2.56585 | 44.63112 | 33914 ft | 442 kts | 282° |
| 2026-04-26 08:16 | -2.55601 | 44.57044 | 33917 ft | 443 kts | 282° |
| 2026-04-26 08:16 | -2.54618 | 44.50990 | 33920 ft | 442 kts | 282° |
| 2026-04-26 08:17 | -2.53636 | 44.44938 | 33925 ft | 440 kts | 282° |
| 2026-04-26 08:17 | -2.52657 | 44.38914 | 33925 ft | 440 kts | 282° |
| 2026-04-26 08:18 | -2.51678 | 44.32890 | 33926 ft | 441 kts | 282° |
| 2026-04-26 08:18 | -2.50697 | 44.26853 | 33925 ft | 440 kts | 282° |
| 2026-04-26 08:19 | -2.49718 | 44.20827 | 33926 ft | 441 kts | 282° |
| 2026-04-26 08:19 | -2.48739 | 44.14803 | 33925 ft | 439 kts | 282° |
| 2026-04-26 08:20 | -2.47764 | 44.08798 | 33926 ft | 438 kts | 282° |
| 2026-04-26 08:20 | -2.46786 | 44.02788 | 33925 ft | 438 kts | 282° |
| 2026-04-26 08:21 | -2.45820 | 43.96805 | 33926 ft | 438 kts | 282° |
| 2026-04-26 08:21 | -2.44876 | 43.90765 | 33926 ft | 439 kts | 282° |
| 2026-04-26 08:22 | -2.43945 | 43.84765 | 33926 ft | 439 kts | 281° |
| 2026-04-26 08:22 | -2.43004 | 43.78714 | 33927 ft | 439 kts | 281° |
| 2026-04-26 08:23 | -2.42065 | 43.72680 | 33926 ft | 440 kts | 282° |
| 2026-04-26 08:23 | -2.41126 | 43.66662 | 33924 ft | 439 kts | 282° |
| 2026-04-26 08:24 | -2.40181 | 43.60613 | 33927 ft | 440 kts | 281° |
| 2026-04-26 08:24 | -2.39238 | 43.54581 | 33926 ft | 440 kts | 281° |
| 2026-04-26 08:25 | -2.38293 | 43.48541 | 33927 ft | 441 kts | 281° |
| 2026-04-26 08:25 | -2.37350 | 43.42505 | 33925 ft | 441 kts | 281° |
| 2026-04-26 08:26 | -2.36406 | 43.36481 | 33925 ft | 441 kts | 281° |
| 2026-04-26 08:26 | -2.35453 | 43.30394 | 33926 ft | 441 kts | 281° |
| 2026-04-26 08:27 | -2.34504 | 43.24347 | 33925 ft | 442 kts | 281° |
| 2026-04-26 08:27 | -2.33561 | 43.18327 | 33927 ft | 440 kts | 281° |
| 2026-04-26 08:28 | -2.32614 | 43.12280 | 33925 ft | 441 kts | 281° |
| 2026-04-26 08:28 | -2.31666 | 43.06225 | 33925 ft | 442 kts | 281° |
| 2026-04-26 08:29 | -2.30712 | 43.00133 | 33924 ft | 442 kts | 281° |
| 2026-04-26 08:29 | -2.29768 | 42.94102 | 33918 ft | 442 kts | 281° |
| 2026-04-26 08:30 | -2.28816 | 42.88034 | 33912 ft | 441 kts | 281° |
| 2026-04-26 08:30 | -2.27867 | 42.81980 | 33909 ft | 441 kts | 281° |
| 2026-04-26 08:31 | -2.26918 | 42.75936 | 33911 ft | 441 kts | 281° |
| 2026-04-26 08:31 | -2.25971 | 42.69903 | 33910 ft | 442 kts | 281° |
| 2026-04-26 08:32 | -2.25020 | 42.63848 | 33911 ft | 442 kts | 281° |
| 2026-04-26 08:32 | -2.24070 | 42.57797 | 33914 ft | 441 kts | 281° |
| 2026-04-26 08:33 | -2.23125 | 42.51778 | 33914 ft | 440 kts | 281° |
| 2026-04-26 08:33 | -2.22171 | 42.45703 | 33916 ft | 441 kts | 281° |
| 2026-04-26 08:34 | -2.21192 | 42.39657 | 33917 ft | 441 kts | 282° |
| 2026-04-26 08:34 | -2.20131 | 42.33629 | 33916 ft | 441 kts | 282° |
| 2026-04-26 08:35 | -2.19057 | 42.27623 | 33916 ft | 441 kts | 282° |
| 2026-04-26 08:35 | -2.17983 | 42.21590 | 33922 ft | 440 kts | 282° |
| 2026-04-26 08:36 | -2.16922 | 42.15595 | 33920 ft | 440 kts | 282° |
| 2026-04-26 08:36 | -2.15855 | 42.09538 | 33924 ft | 441 kts | 282° |
| 2026-04-26 08:37 | -2.14800 | 42.03540 | 33923 ft | 441 kts | 282° |
| 2026-04-26 08:37 | -2.13740 | 41.97512 | 33923 ft | 441 kts | 282° |
| 2026-04-26 08:38 | -2.12673 | 41.91443 | 33927 ft | 442 kts | 282° |
| 2026-04-26 08:38 | -2.11613 | 41.85418 | 33917 ft | 441 kts | 282° |
| 2026-04-26 08:39 | -2.10551 | 41.79382 | 33905 ft | 442 kts | 282° |
| 2026-04-26 08:39 | -2.09492 | 41.73368 | 33909 ft | 441 kts | 282° |
| 2026-04-26 08:40 | -2.08421 | 41.67289 | 33916 ft | 441 kts | 282° |
| 2026-04-26 08:40 | -2.07361 | 41.61279 | 33925 ft | 442 kts | 282° |
| 2026-04-26 08:41 | -2.06289 | 41.55239 | 33925 ft | 441 kts | 282° |
| 2026-04-26 08:41 | -2.05220 | 41.49175 | 33933 ft | 443 kts | 282° |
| 2026-04-26 08:42 | -2.04173 | 41.43153 | 33935 ft | 442 kts | 281° |
| 2026-04-26 08:42 | -2.03192 | 41.37085 | 33938 ft | 443 kts | 281° |
| 2026-04-26 08:43 | -2.02231 | 41.30999 | 33939 ft | 442 kts | 281° |
| 2026-04-26 08:43 | -2.01261 | 41.24919 | 33938 ft | 444 kts | 281° |
| 2026-04-26 08:44 | -2.00291 | 41.18825 | 33947 ft | 443 kts | 281° |
| 2026-04-26 08:44 | -1.99320 | 41.12779 | 33947 ft | 443 kts | 281° |
| 2026-04-26 08:45 | -1.98356 | 41.06701 | 33943 ft | 444 kts | 281° |
| 2026-04-26 08:45 | -1.97380 | 41.00602 | 33946 ft | 443 kts | 281° |
| 2026-04-26 08:46 | -1.96402 | 40.94532 | 33949 ft | 443 kts | 281° |
| 2026-04-26 08:46 | -1.95417 | 40.88431 | 33946 ft | 443 kts | 281° |
| 2026-04-26 08:47 | -1.94437 | 40.82319 | 33947 ft | 445 kts | 281° |
| 2026-04-26 08:47 | -1.93461 | 40.76214 | 33945 ft | 445 kts | 280° |
| 2026-04-26 08:48 | -1.92480 | 40.70085 | 33949 ft | 446 kts | 281° |
| 2026-04-26 08:48 | -1.91489 | 40.63925 | 33949 ft | 446 kts | 281° |
| 2026-04-26 08:49 | -1.90494 | 40.57733 | 33952 ft | 445 kts | 281° |
| 2026-04-26 08:49 | -1.89497 | 40.51527 | 33958 ft | 447 kts | 280° |
| 2026-04-26 08:50 | -1.88510 | 40.45393 | 33958 ft | 447 kts | 281° |
| 2026-04-26 08:50 | -1.87525 | 40.39271 | 33955 ft | 448 kts | 280° |
| 2026-04-26 08:51 | -1.86048 | 40.30071 | 33955 ft | 449 kts | 280° |
| 2026-04-26 08:52 | -1.85059 | 40.23923 | 33955 ft | 450 kts | 280° |
| 2026-04-26 08:52 | -1.84078 | 40.17729 | 33954 ft | 450 kts | 280° |
| 2026-04-26 08:53 | -1.83133 | 40.11578 | 33956 ft | 448 kts | 280° |
| 2026-04-26 08:53 | -1.82192 | 40.05427 | 33956 ft | 449 kts | 280° |
| 2026-04-26 08:54 | -1.81248 | 39.99240 | 33957 ft | 453 kts | 280° |
| 2026-04-26 08:54 | -1.80301 | 39.93034 | 33951 ft | 451 kts | 280° |
| 2026-04-26 08:55 | -1.79356 | 39.86869 | 33943 ft | 450 kts | 280° |
| 2026-04-26 08:55 | -1.78407 | 39.80689 | 33941 ft | 450 kts | 280° |
| 2026-04-26 08:56 | -1.77644 | 39.74405 | 33941 ft | 450 kts | 276° |
| 2026-04-26 08:56 | -1.77133 | 39.68152 | 33945 ft | 453 kts | 276° |
| 2026-04-26 08:57 | -1.76644 | 39.61896 | 33948 ft | 453 kts | 276° |
| 2026-04-26 08:57 | -1.76127 | 39.55624 | 33949 ft | 451 kts | 276° |
| 2026-04-26 08:58 | -1.75592 | 39.49417 | 33949 ft | 452 kts | 276° |
| 2026-04-26 08:58 | -1.75062 | 39.43388 | 33954 ft | 451 kts | 276° |
| 2026-04-26 08:59 | -1.74512 | 39.37167 | 33958 ft | 450 kts | 277° |
| 2026-04-26 08:59 | -1.73956 | 39.30913 | 33961 ft | 451 kts | 277° |
| 2026-04-26 09:00 | -1.73399 | 39.24657 | 33963 ft | 452 kts | 277° |
| 2026-04-26 09:00 | -1.72843 | 39.18425 | 33968 ft | 451 kts | 277° |
| 2026-04-26 09:01 | -1.72285 | 39.12183 | 33971 ft | 451 kts | 277° |
| 2026-04-26 09:01 | -1.71728 | 39.05932 | 33976 ft | 451 kts | 276° |
| 2026-04-26 09:02 | -1.71176 | 38.99726 | 33982 ft | 451 kts | 277° |
| 2026-04-26 09:02 | -1.70619 | 38.93476 | 33986 ft | 451 kts | 277° |
| 2026-04-26 09:03 | -1.70064 | 38.87263 | 33984 ft | 451 kts | 277° |
| 2026-04-26 09:03 | -1.69508 | 38.81023 | 33991 ft | 451 kts | 277° |
| 2026-04-26 09:04 | -1.68954 | 38.74804 | 33999 ft | 451 kts | 277° |
| 2026-04-26 09:04 | -1.68399 | 38.68578 | 34011 ft | 450 kts | 277° |
| 2026-04-26 09:05 | -1.67841 | 38.62334 | 34015 ft | 451 kts | 277° |
| 2026-04-26 09:05 | -1.67281 | 38.56079 | 33994 ft | 450 kts | 277° |
| 2026-04-26 09:05 | -1.67007 | 38.53009 | 33702 ft | 447 kts | 277° |
| 2026-04-26 09:06 | -1.66735 | 38.49948 | 33406 ft | 439 kts | 277° |
| 2026-04-26 09:06 | -1.66468 | 38.46930 | 33114 ft | 433 kts | 277° |
| 2026-04-26 09:06 | -1.66202 | 38.43940 | 32827 ft | 431 kts | 277° |
| 2026-04-26 09:06 | -1.65937 | 38.40979 | 32556 ft | 432 kts | 277° |
| 2026-04-26 09:07 | -1.65668 | 38.37986 | 32297 ft | 431 kts | 277° |
| 2026-04-26 09:07 | -1.65404 | 38.35035 | 32039 ft | 428 kts | 277° |
| 2026-04-26 09:07 | -1.65138 | 38.32060 | 31778 ft | 426 kts | 277° |
| 2026-04-26 09:07 | -1.64874 | 38.29110 | 31519 ft | 424 kts | 277° |
| 2026-04-26 09:08 | -1.64612 | 38.26185 | 31262 ft | 422 kts | 277° |
| 2026-04-26 09:08 | -1.64351 | 38.23266 | 31005 ft | 420 kts | 277° |
| 2026-04-26 09:08 | -1.64094 | 38.20393 | 30752 ft | 418 kts | 277° |
| 2026-04-26 09:08 | -1.63834 | 38.17483 | 30494 ft | 416 kts | 277° |
| 2026-04-26 09:09 | -1.63580 | 38.14655 | 30244 ft | 414 kts | 277° |
| 2026-04-26 09:09 | -1.63325 | 38.11801 | 29992 ft | 411 kts | 277° |
| 2026-04-26 09:09 | -1.63071 | 38.08953 | 29735 ft | 409 kts | 278° |
| 2026-04-26 09:09 | -1.62818 | 38.06134 | 29485 ft | 408 kts | 278° |
| 2026-04-26 09:10 | -1.62565 | 38.03303 | 29232 ft | 407 kts | 278° |
| 2026-04-26 09:10 | -1.62316 | 38.00529 | 28980 ft | 404 kts | 278° |
| 2026-04-26 09:10 | -1.62065 | 37.97731 | 28723 ft | 402 kts | 278° |
| 2026-04-26 09:10 | -1.61817 | 37.94961 | 28474 ft | 400 kts | 278° |
| 2026-04-26 09:11 | -1.61568 | 37.92190 | 28226 ft | 399 kts | 278° |
| 2026-04-26 09:11 | -1.61321 | 37.89431 | 27971 ft | 397 kts | 278° |
| 2026-04-26 09:11 | -1.61076 | 37.86695 | 27722 ft | 394 kts | 277° |
| 2026-04-26 09:11 | -1.60833 | 37.83986 | 27473 ft | 391 kts | 277° |
| 2026-04-26 09:12 | -1.60593 | 37.81318 | 27210 ft | 390 kts | 277° |
| 2026-04-26 09:12 | -1.60352 | 37.78628 | 26815 ft | 387 kts | 277° |
| 2026-04-26 09:12 | -1.60112 | 37.75953 | 26372 ft | 384 kts | 277° |
| 2026-04-26 09:12 | -1.59875 | 37.73323 | 25924 ft | 382 kts | 277° |
| 2026-04-26 09:13 | -1.59638 | 37.70684 | 25472 ft | 379 kts | 277° |
| 2026-04-26 09:13 | -1.59403 | 37.68059 | 25022 ft | 376 kts | 277° |
| 2026-04-26 09:13 | -1.59171 | 37.65480 | 24580 ft | 373 kts | 277° |
| 2026-04-26 09:13 | -1.58942 | 37.62927 | 24133 ft | 371 kts | 277° |
| 2026-04-26 09:14 | -1.58710 | 37.60347 | 23685 ft | 368 kts | 277° |
| 2026-04-26 09:14 | -1.58484 | 37.57837 | 23246 ft | 366 kts | 277° |
| 2026-04-26 09:14 | -1.58256 | 37.55298 | 22800 ft | 364 kts | 277° |
| 2026-04-26 09:14 | -1.58029 | 37.52774 | 22358 ft | 361 kts | 277° |
| 2026-04-26 09:15 | -1.57807 | 37.50308 | 21935 ft | 359 kts | 277° |
| 2026-04-26 09:15 | -1.57584 | 37.47819 | 21512 ft | 357 kts | 277° |
| 2026-04-26 09:15 | -1.57362 | 37.45348 | 21081 ft | 356 kts | 277° |
| 2026-04-26 09:15 | -1.57143 | 37.42913 | 20645 ft | 354 kts | 277° |
| 2026-04-26 09:16 | -1.56923 | 37.40470 | 20212 ft | 353 kts | 277° |
| 2026-04-26 09:16 | -1.56704 | 37.38046 | 19784 ft | 352 kts | 277° |
| 2026-04-26 09:16 | -1.56485 | 37.35613 | 19361 ft | 350 kts | 277° |
| 2026-04-26 09:16 | -1.56268 | 37.33199 | 18949 ft | 348 kts | 277° |
| 2026-04-26 09:17 | -1.56050 | 37.30765 | 18534 ft | 346 kts | 276° |
| 2026-04-26 09:17 | -1.55835 | 37.28384 | 18115 ft | 345 kts | 277° |
| 2026-04-26 09:17 | -1.55617 | 37.25986 | 17690 ft | 344 kts | 276° |
| 2026-04-26 09:17 | -1.55402 | 37.23620 | 17263 ft | 342 kts | 276° |
| 2026-04-26 09:18 | -1.55185 | 37.21225 | 16822 ft | 341 kts | 276° |
| 2026-04-26 09:18 | -1.54974 | 37.18894 | 16404 ft | 340 kts | 276° |
| 2026-04-26 09:18 | -1.54766 | 37.16552 | 15940 ft | 337 kts | 276° |
| 2026-04-26 09:18 | -1.54561 | 37.14233 | 15577 ft | 329 kts | 276° |
| 2026-04-26 09:19 | -1.54357 | 37.11943 | 15135 ft | 328 kts | 276° |
| 2026-04-26 09:19 | -1.54153 | 37.09668 | 14711 ft | 327 kts | 276° |
| 2026-04-26 09:19 | -1.53947 | 37.07399 | 14309 ft | 325 kts | 276° |
| 2026-04-26 09:19 | -1.53743 | 37.05155 | 13882 ft | 322 kts | 276° |
| 2026-04-26 09:20 | -1.53544 | 37.02962 | 13523 ft | 315 kts | 277° |
| 2026-04-26 09:20 | -1.53342 | 37.00764 | 13094 ft | 315 kts | 277° |
| 2026-04-26 09:20 | -1.53141 | 36.98564 | 12690 ft | 314 kts | 276° |
| 2026-04-26 09:20 | -1.52945 | 36.96417 | 12306 ft | 311 kts | 276° |
| 2026-04-26 09:21 | -1.52751 | 36.94273 | 11879 ft | 305 kts | 276° |
| 2026-04-26 09:21 | -1.52561 | 36.92167 | 11380 ft | 302 kts | 276° |
| 2026-04-26 09:21 | -1.52372 | 36.90092 | 10798 ft | 301 kts | 276° |
| 2026-04-26 09:21 | -1.52183 | 36.88018 | 10217 ft | 299 kts | 276° |
| 2026-04-26 09:22 | -1.51997 | 36.85981 | 9634 ft | 296 kts | 275° |
| 2026-04-26 09:22 | -1.51699 | 36.83949 | 9088 ft | 293 kts | 285° |
| 2026-04-26 09:22 | -1.50881 | 36.82145 | 8647 ft | 288 kts | 309° |
| 2026-04-26 09:22 | -1.49405 | 36.80799 | 8282 ft | 284 kts | 325° |
| 2026-04-26 09:23 | -1.47799 | 36.79720 | 8174 ft | 269 kts | 328° |
| 2026-04-26 09:23 | -1.46239 | 36.78793 | 8093 ft | 253 kts | 335° |
| 2026-04-26 09:23 | -1.44610 | 36.78249 | 7993 ft | 236 kts | 354° |
| 2026-04-26 09:23 | -1.43086 | 36.78432 | 8001 ft | 213 kts | 25° |
| 2026-04-26 09:24 | -1.41972 | 36.79277 | 7996 ft | 190 kts | 50° |
| 2026-04-26 09:24 | -1.41192 | 36.80263 | 7993 ft | 173 kts | 54° |
| 2026-04-26 09:24 | -1.40449 | 36.81241 | 7840 ft | 176 kts | 53° |
| 2026-04-26 09:24 | -1.39719 | 36.82203 | 7545 ft | 172 kts | 53° |
| 2026-04-26 09:25 | -1.39035 | 36.83131 | 7300 ft | 162 kts | 54° |
| 2026-04-26 09:25 | -1.38372 | 36.84047 | 7124 ft | 163 kts | 54° |
| 2026-04-26 09:25 | -1.37701 | 36.84952 | 6900 ft | 162 kts | 53° |
| 2026-04-26 09:25 | -1.37028 | 36.85866 | 6677 ft | 162 kts | 54° |
| 2026-04-26 09:26 | -1.36366 | 36.86762 | 6494 ft | 159 kts | 53° |
| 2026-04-26 09:26 | -1.35695 | 36.87646 | 6267 ft | 161 kts | 53° |
| 2026-04-26 09:26 | -1.35033 | 36.88553 | 6080 ft | 160 kts | 55° |
| 2026-04-26 09:26 | -1.34370 | 36.89452 | 5873 ft | 161 kts | 53° |
| 2026-04-26 09:27 | -1.33692 | 36.90352 | 5645 ft | 162 kts | 54° |
| 2026-04-26 09:27 | -1.33038 | 36.91256 | 5451 ft | 161 kts | 53° |
| 2026-04-26 09:27 | -1.32378 | 36.92153 | 5316 ft | 150 kts | 54° |
| 2026-04-26 09:27 | -1.31910 | 36.92792 | 5318 ft | 79 kts | 54° |
| 2026-04-26 09:28 | -1.31686 | 36.93101 | 5317 ft | 39 kts | 53° |
| 2026-04-26 09:28 | -1.31574 | 36.93254 | 5314 ft | 14 kts | 55° |
| 2026-04-26 09:28 | -1.31579 | 36.93341 | 5312 ft | 13 kts | 131° |
| 2026-04-26 09:28 | -1.31657 | 36.93399 | 5308 ft | 14 kts | 146° |
| 2026-04-26 09:29 | -1.31747 | 36.93461 | 5302 ft | 15 kts | 143° |
| 2026-04-26 09:29 | -1.31796 | 36.93490 | 5300 ft | 4 kts | 183° |
| 2026-04-26 09:29 | -1.31814 | 36.93479 | 5301 ft | 1 kts | 228° |
| 2026-04-26 09:29 | -1.31831 | 36.93460 | 5302 ft | 6 kts | 228° |
| 2026-04-26 09:30 | -1.31874 | 36.93405 | 5304 ft | 13 kts | 233° |
| 2026-04-26 09:30 | -1.31938 | 36.93318 | 5308 ft | 16 kts | 234° |
| 2026-04-26 09:30 | -1.32013 | 36.93216 | 5313 ft | 19 kts | 233° |
| 2026-04-26 09:30 | -1.32101 | 36.93098 | 5319 ft | 21 kts | 233° |
| 2026-04-26 09:31 | -1.32193 | 36.92972 | 5325 ft | 23 kts | 235° |
| 2026-04-26 09:31 | -1.32296 | 36.92830 | 5326 ft | 26 kts | 233° |
| 2026-04-26 09:31 | -1.32414 | 36.92668 | 5325 ft | 31 kts | 236° |
| 2026-04-26 09:31 | -1.32549 | 36.92480 | 5320 ft | 32 kts | 232° |
| 2026-04-26 09:32 | -1.32650 | 36.92353 | 5317 ft | 14 kts | 204° |
| 2026-04-26 09:32 | -1.32749 | 36.92390 | 5313 ft | 15 kts | 172° |
| 2026-04-26 09:32 | -1.32822 | 36.92331 | 5313 ft | 13 kts | 235° |
| 2026-04-26 09:32 | -1.32883 | 36.92271 | 5315 ft | 11 kts | 213° |
| 2026-04-26 09:33 | -1.32974 | 36.92228 | 5317 ft | 17 kts | 197° |
| 2026-04-26 09:33 | -1.33107 | 36.92223 | 5317 ft | 19 kts | 165° |
| 2026-04-26 09:33 | -1.33241 | 36.92283 | 5309 ft | 22 kts | 173° |
| 2026-04-26 09:33 | -1.33389 | 36.92310 | 5305 ft | 18 kts | 143° |
| 2026-04-26 09:34 | -1.33448 | 36.92401 | 5305 ft | 16 kts | 86° |
| 2026-04-26 09:34 | -1.33407 | 36.92500 | 5306 ft | 14 kts | 52° |
| 2026-04-26 09:34 | -1.33327 | 36.92542 | 5308 ft | 12 kts | 354° |
| 2026-04-26 09:34 | -1.33254 | 36.92530 | 5310 ft | 8 kts | 336° |
| 2026-04-26 09:35 | -1.33234 | 36.92496 | 5310 ft | 2 kts | 290° |
| 2026-04-26 09:35 | -1.33231 | 36.92489 | 5311 ft | 0 kts | 289° |
| 2026-04-26 09:35 | -1.33231 | 36.92487 | 5311 ft | 0 kts | 289° |